Time;durP1;ratioP1;P1;durP2;ratioP2;P2;SDS_P1;SDS_P2;PMS_P1;PMS_P2;Temp;Humidity;BMP_temperature;BMP_pressure;BME280_temperature;BME280_humidity;BME280_pressure;Samples;Min_cycle;Max_cycle;Signal;HPM_P1;HPM_P2
2023/07/30 00:01:57;;;;;;;8.27;4.53;;;19.80;99.90;;;;;;4983343;28;20042;-66
2023/07/30 00:04:44;;;;;;;6.85;4.40;;;19.80;99.90;;;;;;4963203;28;20046;-66
2023/07/30 00:07:30;;;;;;;5.82;4.63;;;19.80;99.90;;;;;;4990600;28;20487;-65
2023/07/30 00:10:17;;;;;;;5.30;4.13;;;19.80;99.90;;;;;;4987675;28;20042;-65
2023/07/30 00:13:03;;;;;;;6.35;4.57;;;19.70;99.90;;;;;;4988618;28;20529;-65
2023/07/30 00:15:49;;;;;;;7.15;4.60;;;19.70;99.90;;;;;;4986945;28;20089;-66
2023/07/30 00:18:35;;;;;;;6.35;4.43;;;19.70;99.90;;;;;;4975247;28;20203;-65
2023/07/30 00:21:20;;;;;;;7.25;4.90;;;19.70;99.90;;;;;;4987827;28;20050;-65
2023/07/30 00:24:06;;;;;;;6.47;4.10;;;19.70;99.90;;;;;;4981850;28;20551;-65
2023/07/30 00:26:52;;;;;;;6.90;4.70;;;19.60;99.90;;;;;;4985536;28;20042;-64
2023/07/30 00:29:38;;;;;;;6.30;4.85;;;19.60;99.90;;;;;;4986285;28;20062;-65
2023/07/30 00:32:24;;;;;;;6.22;4.53;;;19.60;99.90;;;;;;4989829;28;20065;-65
2023/07/30 00:35:10;;;;;;;6.43;4.35;;;19.60;99.90;;;;;;4984685;28;20425;-66
2023/07/30 00:37:56;;;;;;;6.28;4.97;;;19.50;99.90;;;;;;4973131;28;20042;-65
2023/07/30 00:40:42;;;;;;;5.72;4.20;;;19.50;99.90;;;;;;4986949;28;20045;-66
2023/07/30 00:43:28;;;;;;;5.97;4.05;;;19.50;99.90;;;;;;4989359;28;20153;-66
2023/07/30 00:46:14;;;;;;;4.63;3.53;;;19.50;99.90;;;;;;4985596;28;20495;-66
2023/07/30 00:49:01;;;;;;;6.63;3.97;;;19.50;99.90;;;;;;4989689;28;20036;-72
2023/07/30 00:51:47;;;;;;;6.10;4.10;;;19.50;99.90;;;;;;4988457;28;20060;-71
2023/07/30 00:54:33;;;;;;;8.63;4.40;;;19.40;99.90;;;;;;4985874;28;20063;-71
2023/07/30 00:57:19;;;;;;;5.43;4.38;;;19.40;99.90;;;;;;4970567;28;20046;-71
2023/07/30 01:00:08;;;;;;;4.78;3.38;;;19.40;99.90;;;;;;4973727;28;20053;-72
2023/07/30 01:02:55;;;;;;;7.10;4.20;;;19.40;99.90;;;;;;4989712;28;20495;-72
2023/07/30 01:05:41;;;;;;;6.35;3.53;;;19.40;99.90;;;;;;4987168;28;20050;-72
2023/07/30 01:08:27;;;;;;;6.57;3.88;;;19.30;99.90;;;;;;4985888;28;20043;-72
2023/07/30 01:11:14;;;;;;;7.35;4.28;;;19.30;99.90;;;;;;4988575;28;20074;-71
2023/07/30 01:14:01;;;;;;;7.68;4.18;;;19.20;99.90;;;;;;4989679;28;20129;-71
2023/07/30 01:16:47;;;;;;;4.68;3.45;;;19.20;99.90;;;;;;4988452;28;20069;-71
2023/07/30 01:19:33;;;;;;;5.65;3.75;;;19.20;99.90;;;;;;4982648;28;20059;-72
2023/07/30 01:22:19;;;;;;;5.22;3.45;;;19.20;99.90;;;;;;4985786;28;20045;-71
2023/07/30 01:25:06;;;;;;;5.20;3.10;;;19.20;99.90;;;;;;4987102;28;20182;-70
2023/07/30 01:27:56;;;;;;;5.10;4.03;;;19.20;99.90;;;;;;4989487;28;20051;-65
2023/07/30 01:30:42;;;;;;;5.90;3.75;;;19.20;99.90;;;;;;4979210;28;20043;-64
2023/07/30 01:33:30;;;;;;;6.50;3.75;;;19.10;99.90;;;;;;4977260;28;20054;-65
2023/07/30 01:36:16;;;;;;;10.25;3.55;;;19.10;99.90;;;;;;4985988;28;20065;-64
2023/07/30 01:39:03;;;;;;;6.38;4.15;;;19.10;99.90;;;;;;4986971;28;20051;-66
2023/07/30 01:41:48;;;;;;;8.20;3.75;;;19.10;99.90;;;;;;4992090;28;20101;-65
2023/07/30 01:44:34;;;;;;;7.43;4.20;;;19.10;99.90;;;;;;4993130;28;20455;-65
2023/07/30 01:47:20;;;;;;;5.35;3.88;;;19.10;99.90;;;;;;4989815;28;20043;-66
2023/07/30 01:50:06;;;;;;;5.10;3.38;;;19.00;99.90;;;;;;4972851;28;20125;-66
2023/07/30 01:52:52;;;;;;;5.07;4.03;;;19.00;99.90;;;;;;4991179;28;20050;-65
2023/07/30 01:55:43;;;;;;;4.43;3.22;;;19.00;99.90;;;;;;4989604;28;20535;-67
2023/07/30 01:58:29;;;;;;;5.18;3.80;;;19.00;99.90;;;;;;4992243;28;20530;-65
2023/07/30 02:01:15;;;;;;;5.35;3.72;;;19.00;99.90;;;;;;4988397;28;20111;-65
2023/07/30 02:04:01;;;;;;;4.40;3.40;;;19.00;99.90;;;;;;4992253;28;20088;-65
2023/07/30 02:06:48;;;;;;;5.20;3.05;;;19.00;99.90;;;;;;4989606;28;20137;-65
2023/07/30 02:09:34;;;;;;;4.60;3.35;;;19.00;99.90;;;;;;4974008;28;20074;-65
2023/07/30 02:12:20;;;;;;;4.93;3.00;;;19.00;99.90;;;;;;4990532;28;20429;-66
2023/07/30 02:15:06;;;;;;;4.60;3.42;;;18.90;99.90;;;;;;4990995;28;20490;-66
2023/07/30 02:17:52;;;;;;;4.07;3.03;;;18.90;99.90;;;;;;4991692;28;20078;-65
2023/07/30 02:20:38;;;;;;;5.65;3.38;;;18.90;99.90;;;;;;4990746;28;20048;-65
2023/07/30 02:23:24;;;;;;;6.22;3.70;;;18.90;99.90;;;;;;4990129;28;20042;-65
2023/07/30 02:26:10;;;;;;;5.35;3.85;;;18.80;99.90;;;;;;4990878;28;20046;-67
2023/07/30 02:28:58;;;;;;;4.95;3.30;;;18.80;99.90;;;;;;4990904;28;20096;-67
2023/07/30 02:31:44;;;;;;;4.53;3.28;;;18.80;99.90;;;;;;4975239;28;20403;-65
2023/07/30 02:34:30;;;;;;;5.90;4.35;;;18.80;99.90;;;;;;4990329;28;20400;-65
2023/07/30 02:37:16;;;;;;;4.72;3.78;;;18.80;99.90;;;;;;4973600;28;20039;-65
2023/07/30 02:40:04;;;;;;;5.85;4.43;;;18.80;99.90;;;;;;4973138;28;20054;-64
2023/07/30 02:42:50;;;;;;;5.03;3.65;;;18.80;99.90;;;;;;4975864;28;20053;-64
2023/07/30 02:45:37;;;;;;;4.40;3.50;;;18.80;99.90;;;;;;4987933;28;20046;-64
2023/07/30 02:48:23;;;;;;;4.88;3.60;;;18.70;99.90;;;;;;4984625;28;20101;-64
2023/07/30 02:51:09;;;;;;;4.28;3.30;;;18.80;99.90;;;;;;4987771;28;20076;-66
2023/07/30 02:54:01;;;;;;;5.40;3.85;;;18.70;99.90;;;;;;4972273;28;20500;-66
2023/07/30 02:56:47;;;;;;;5.47;3.78;;;18.80;99.90;;;;;;4983677;28;20042;-66
2023/07/30 02:59:35;;;;;;;7.03;4.20;;;18.80;99.90;;;;;;4990316;28;20415;-66
2023/07/30 03:02:21;;;;;;;5.00;3.35;;;18.80;99.90;;;;;;4985633;28;20061;-65
2023/07/30 03:05:07;;;;;;;9.88;4.15;;;18.70;99.90;;;;;;4990070;28;20046;-65
2023/07/30 03:07:53;;;;;;;4.60;3.75;;;18.70;99.90;;;;;;4970749;28;20080;-66
2023/07/30 03:10:39;;;;;;;5.72;4.43;;;18.80;99.90;;;;;;4988431;28;20050;-65
2023/07/30 03:13:26;;;;;;;5.20;4.10;;;18.70;99.90;;;;;;4990568;28;20141;-65
2023/07/30 03:16:12;;;;;;;7.28;3.35;;;18.70;99.90;;;;;;4987590;28;20104;-63
2023/07/30 03:18:57;;;;;;;4.80;3.63;;;18.70;99.90;;;;;;4990962;28;20038;-65
2023/07/30 03:21:43;;;;;;;4.57;3.47;;;18.70;99.90;;;;;;4981855;28;20026;-65
2023/07/30 03:24:29;;;;;;;6.22;3.78;;;18.70;99.90;;;;;;4989801;28;20042;-65
2023/07/30 03:27:15;;;;;;;5.18;3.50;;;18.70;99.90;;;;;;4987829;28;20049;-65
2023/07/30 03:30:01;;;;;;;7.05;3.53;;;18.70;99.90;;;;;;4987686;28;20412;-65
2023/07/30 03:32:47;;;;;;;8.10;4.13;;;18.70;99.90;;;;;;4986942;28;20038;-65
2023/07/30 03:35:33;;;;;;;5.68;3.47;;;18.70;99.90;;;;;;4988209;28;20053;-65
2023/07/30 03:38:19;;;;;;;4.65;3.72;;;18.70;99.90;;;;;;4972566;28;20130;-65
2023/07/30 03:41:08;;;;;;;5.43;3.50;;;18.70;99.90;;;;;;4976495;28;20038;-65
2023/07/30 03:43:54;;;;;;;6.50;4.18;;;18.70;99.90;;;;;;4990101;28;20104;-66
2023/07/30 03:46:40;;;;;;;4.93;3.60;;;18.70;99.90;;;;;;4988392;28;20113;-66
2023/07/30 03:49:26;;;;;;;5.18;3.55;;;18.70;99.90;;;;;;4988881;28;20097;-65
2023/07/30 03:52:12;;;;;;;5.38;3.53;;;18.70;99.90;;;;;;4986075;28;20511;-65
2023/07/30 03:54:57;;;;;;;7.85;4.72;;;18.70;99.90;;;;;;4989105;28;20805;-65
2023/07/30 03:57:43;;;;;;;5.43;4.25;;;18.70;99.90;;;;;;4989669;28;20038;-65
2023/07/30 04:00:29;;;;;;;6.13;4.28;;;18.70;99.90;;;;;;4970880;28;20042;-65
2023/07/30 04:03:15;;;;;;;5.13;3.70;;;18.70;99.90;;;;;;4979273;28;20125;-65
2023/07/30 04:06:01;;;;;;;6.43;4.30;;;18.70;99.90;;;;;;4974101;28;20483;-65
2023/07/30 04:08:47;;;;;;;7.03;4.13;;;18.70;99.90;;;;;;4989489;28;20503;-66
2023/07/30 04:11:33;;;;;;;5.05;3.85;;;18.70;99.90;;;;;;4986633;28;20138;-66
2023/07/30 04:14:19;;;;;;;5.03;3.80;;;18.70;99.90;;;;;;4988384;28;20086;-65
2023/07/30 04:17:05;;;;;;;4.57;3.92;;;18.70;99.90;;;;;;4985733;28;20596;-65
2023/07/30 04:19:51;;;;;;;4.72;3.75;;;18.80;99.90;;;;;;4987732;28;20104;-65
2023/07/30 04:22:37;;;;;;;6.35;4.07;;;18.80;99.90;;;;;;4987463;28;20077;-64
2023/07/30 04:25:23;;;;;;;6.07;3.95;;;18.80;99.90;;;;;;4982212;28;20092;-65
2023/07/30 04:28:09;;;;;;;6.18;4.65;;;18.80;99.90;;;;;;4983290;28;20047;-65
2023/07/30 04:30:55;;;;;;;7.25;3.88;;;18.90;99.90;;;;;;4981593;28;20108;-65
2023/07/30 04:33:41;;;;;;;5.47;3.67;;;18.90;99.90;;;;;;4988859;28;20038;-65
2023/07/30 04:36:27;;;;;;;7.68;4.13;;;19.00;99.90;;;;;;4979338;28;20069;-64
2023/07/30 04:39:13;;;;;;;4.88;4.00;;;19.00;99.90;;;;;;4989715;28;20046;-65
2023/07/30 04:41:59;;;;;;;4.07;3.60;;;19.00;99.90;;;;;;4986808;28;20133;-65
2023/07/30 04:44:45;;;;;;;6.20;4.00;;;19.00;99.90;;;;;;4982040;28;20562;-65
2023/07/30 04:47:30;;;;;;;6.63;4.22;;;19.00;99.90;;;;;;4987545;28;20057;-66
2023/07/30 04:50:16;;;;;;;4.97;4.03;;;19.00;99.90;;;;;;4985449;28;20039;-66
2023/07/30 04:53:02;;;;;;;4.60;3.70;;;19.10;99.90;;;;;;4988378;28;20133;-66
2023/07/30 04:55:48;;;;;;;5.63;4.40;;;19.10;99.90;;;;;;4988298;28;20177;-66
2023/07/30 04:58:34;;;;;;;5.90;4.38;;;19.10;99.90;;;;;;4987638;28;20063;-66
2023/07/30 05:01:20;;;;;;;4.93;3.83;;;19.10;99.90;;;;;;4986313;28;20038;-66
2023/07/30 05:04:06;;;;;;;7.07;4.70;;;19.20;99.90;;;;;;4988213;28;20042;-65
2023/07/30 05:06:52;;;;;;;4.75;3.78;;;19.20;99.90;;;;;;4984241;28;20157;-66
2023/07/30 05:09:38;;;;;;;5.18;4.50;;;19.20;99.90;;;;;;4986809;28;20458;-64
2023/07/30 05:12:24;;;;;;;5.57;3.63;;;19.20;99.90;;;;;;4984407;28;20050;-65
2023/07/30 05:15:10;;;;;;;5.25;3.67;;;19.20;99.90;;;;;;4992980;28;20058;-66
2023/07/30 05:17:56;;;;;;;5.95;4.20;;;19.20;99.90;;;;;;4960071;28;20035;-63
2023/07/30 05:20:42;;;;;;;7.00;4.65;;;19.30;99.90;;;;;;4986641;28;20074;-62
2023/07/30 05:23:27;;;;;;;4.68;3.50;;;19.30;99.90;;;;;;4983046;28;20042;-63
2023/07/30 05:26:13;;;;;;;5.95;4.25;;;19.30;99.90;;;;;;4983346;28;20046;-64
2023/07/30 05:28:59;;;;;;;5.70;3.85;;;19.40;99.90;;;;;;4993035;28;20105;-63
2023/07/30 05:31:45;;;;;;;3.83;3.30;;;19.40;99.90;;;;;;4990159;28;20031;-64
2023/07/30 05:34:31;;;;;;;6.70;3.65;;;19.40;99.90;;;;;;4992886;28;20054;-64
2023/07/30 05:37:17;;;;;;;4.20;3.33;;;19.50;99.90;;;;;;4989716;28;20046;-64
2023/07/30 05:40:04;;;;;;;3.80;3.03;;;19.60;99.90;;;;;;4989402;28;20046;-64
2023/07/30 05:42:50;;;;;;;4.40;3.28;;;19.70;99.90;;;;;;4988161;28;20039;-64
2023/07/30 05:45:36;;;;;;;4.68;3.40;;;19.80;99.90;;;;;;4991450;28;20452;-75
2023/07/30 05:48:22;;;;;;;3.60;2.97;;;19.90;99.90;;;;;;4985739;28;20039;-74
2023/07/30 05:51:08;;;;;;;3.78;3.13;;;20.00;99.90;;;;;;4980266;28;20073;-75
2023/07/30 05:53:54;;;;;;;4.90;3.63;;;20.10;99.90;;;;;;4982401;28;20050;-75
2023/07/30 05:56:39;;;;;;;3.65;2.75;;;20.20;99.90;;;;;;4984379;28;20045;-74
2023/07/30 05:59:25;;;;;;;5.70;3.63;;;20.20;99.90;;;;;;4992727;28;20234;-74
2023/07/30 06:02:11;;;;;;;4.53;2.80;;;20.30;99.90;;;;;;4989880;28;20399;-75
2023/07/30 06:04:57;;;;;;;3.70;2.78;;;20.30;99.90;;;;;;4989883;28;20045;-76
2023/07/30 06:07:43;;;;;;;3.22;2.65;;;20.30;99.90;;;;;;4988594;28;20065;-75
2023/07/30 06:10:29;;;;;;;3.60;2.42;;;20.40;99.90;;;;;;4989609;28;20038;-74
2023/07/30 06:13:15;;;;;;;3.72;2.75;;;20.40;99.90;;;;;;4991644;28;20046;-75
2023/07/30 06:16:01;;;;;;;3.53;2.72;;;20.50;99.90;;;;;;4990113;28;20047;-75
2023/07/30 06:18:47;;;;;;;3.55;2.50;;;20.50;99.90;;;;;;4986174;28;20046;-75
2023/07/30 06:21:33;;;;;;;3.97;2.60;;;20.60;99.90;;;;;;4990219;28;20148;-75
2023/07/30 06:24:19;;;;;;;4.00;2.90;;;20.60;99.90;;;;;;4989813;28;20042;-75
2023/07/30 06:27:05;;;;;;;4.03;2.90;;;20.70;99.90;;;;;;4989924;28;20050;-75
2023/07/30 06:29:51;;;;;;;3.65;2.42;;;20.80;99.90;;;;;;4991746;28;20575;-74
2023/07/30 06:32:37;;;;;;;3.50;2.60;;;20.80;99.90;;;;;;4990084;28;20052;-74
2023/07/30 06:35:23;;;;;;;4.13;2.85;;;20.90;99.90;;;;;;4980652;28;20059;-74
2023/07/30 06:38:09;;;;;;;3.30;2.40;;;21.00;99.90;;;;;;4978626;28;20050;-73
2023/07/30 06:40:58;;;;;;;3.67;2.58;;;21.10;99.90;;;;;;4990203;28;20085;-64
2023/07/30 06:43:44;;;;;;;3.20;2.28;;;21.30;99.90;;;;;;4991893;28;20039;-65
2023/07/30 06:46:30;;;;;;;3.10;2.17;;;21.40;99.90;;;;;;4990755;28;20047;-65
2023/07/30 06:49:16;;;;;;;3.45;2.13;;;21.60;99.90;;;;;;4988428;28;20050;-66
2023/07/30 06:52:02;;;;;;;3.15;2.30;;;21.70;99.90;;;;;;4981977;28;20039;-67
2023/07/30 06:54:48;;;;;;;4.03;2.42;;;21.70;99.90;;;;;;4985402;28;20522;-66
2023/07/30 06:57:34;;;;;;;4.22;2.65;;;21.80;99.90;;;;;;4988752;28;20046;-67
2023/07/30 07:00:21;;;;;;;2.35;2.00;;;21.90;99.90;;;;;;4989131;28;20108;-67
2023/07/30 07:03:07;;;;;;;2.95;2.05;;;21.90;99.90;;;;;;4979986;28;20058;-67
2023/07/30 07:05:56;;;;;;;3.22;2.40;;;22.00;99.90;;;;;;4985195;28;20574;-67
2023/07/30 07:08:42;;;;;;;3.72;2.63;;;22.10;99.90;;;;;;4979388;28;20121;-67
2023/07/30 07:11:28;;;;;;;3.65;2.45;;;22.20;99.90;;;;;;4978591;28;20044;-75
2023/07/30 07:14:14;;;;;;;4.13;2.83;;;22.20;99.90;;;;;;4983996;28;20065;-76
2023/07/30 07:17:00;;;;;;;3.67;2.63;;;22.30;99.90;;;;;;4976366;28;20053;-75
2023/07/30 07:19:46;;;;;;;3.42;2.42;;;22.30;99.90;;;;;;4989879;28;20053;-75
2023/07/30 07:22:32;;;;;;;3.40;2.25;;;22.40;99.90;;;;;;4987878;28;20515;-74
2023/07/30 07:25:19;;;;;;;3.65;2.85;;;22.50;99.90;;;;;;4986377;28;20527;-75
2023/07/30 07:28:05;;;;;;;4.07;2.72;;;22.60;99.90;;;;;;4976491;28;20046;-74
2023/07/30 07:30:51;;;;;;;3.05;2.25;;;22.60;99.90;;;;;;4986328;28;20502;-74
2023/07/30 07:33:37;;;;;;;3.53;2.38;;;22.60;99.90;;;;;;4988408;28;20043;-75
2023/07/30 07:36:23;;;;;;;7.10;3.13;;;22.60;99.90;;;;;;4985609;28;20085;-76
2023/07/30 07:39:09;;;;;;;3.95;2.90;;;22.60;99.90;;;;;;4989241;28;20054;-76
2023/07/30 07:41:55;;;;;;;4.50;3.22;;;22.60;99.90;;;;;;4985239;28;20125;-76
2023/07/30 07:44:43;;;;;;;4.53;2.88;;;22.70;99.90;;;;;;4988974;28;20042;-76
2023/07/30 07:47:29;;;;;;;5.10;3.05;;;22.70;99.90;;;;;;4986241;28;20042;-76
2023/07/30 07:50:15;;;;;;;5.78;2.80;;;22.80;99.90;;;;;;4970988;28;20169;-76
2023/07/30 07:53:01;;;;;;;3.70;2.33;;;22.90;99.90;;;;;;4977679;28;20132;-76
2023/07/30 07:55:47;;;;;;;3.10;2.05;;;23.00;99.90;;;;;;4983125;28;20380;-76
2023/07/30 07:58:33;;;;;;;6.43;3.10;;;23.10;99.90;;;;;;4984572;28;20038;-77
2023/07/30 08:01:19;;;;;;;3.97;2.92;;;23.20;99.90;;;;;;4986849;28;20074;-76
2023/07/30 08:04:05;;;;;;;4.22;2.53;;;23.20;99.90;;;;;;4984989;28;20129;-77
2023/07/30 08:06:51;;;;;;;3.47;2.50;;;23.30;99.90;;;;;;4985732;28;20112;-76
2023/07/30 08:09:37;;;;;;;4.88;2.47;;;23.40;99.90;;;;;;4988638;28;20049;-77
2023/07/30 08:12:23;;;;;;;3.50;2.28;;;23.40;99.90;;;;;;4989230;28;20403;-76
2023/07/30 08:15:09;;;;;;;3.65;2.67;;;23.50;99.90;;;;;;4984802;28;20042;-76
2023/07/30 08:17:55;;;;;;;2.78;1.90;;;23.70;99.90;;;;;;4986863;28;20130;-76
2023/07/30 08:20:41;;;;;;;3.85;2.92;;;23.70;99.90;;;;;;4987463;28;20045;-76
2023/07/30 08:23:27;;;;;;;4.82;2.45;;;23.70;99.90;;;;;;4989119;28;20133;-77
2023/07/30 08:26:13;;;;;;;2.83;2.13;;;23.70;99.90;;;;;;4987240;28;20049;-76
2023/07/30 08:28:59;;;;;;;3.60;2.45;;;23.80;99.90;;;;;;4987981;28;20046;-80
2023/07/30 08:31:45;;;;;;;2.70;1.92;;;23.80;99.90;;;;;;4986224;28;20042;-79
2023/07/30 08:34:32;;;;;;;4.00;2.40;;;23.90;99.90;;;;;;4975300;28;20086;-73
2023/07/30 08:37:17;;;;;;;4.68;2.88;;;24.00;99.90;;;;;;4983158;28;20038;-77
2023/07/30 08:40:04;;;;;;;4.05;3.08;;;24.10;99.90;;;;;;4978651;28;20038;-75
2023/07/30 08:42:53;;;;;;;4.13;2.03;;;24.20;99.60;;;;;;4983635;28;20042;-71
2023/07/30 08:45:39;;;;;;;3.08;2.00;;;24.30;99.20;;;;;;4978111;28;20484;-77
2023/07/30 08:48:26;;;;;;;3.35;2.30;;;24.30;99.20;;;;;;4990517;28;20042;-72
2023/07/30 08:51:19;;;;;;;3.00;2.10;;;24.40;99.10;;;;;;4990897;28;20042;-72
2023/07/30 08:54:06;;;;;;;2.38;1.92;;;24.50;98.90;;;;;;4985655;28;20047;-78
2023/07/30 08:56:52;;;;;;;3.03;1.83;;;24.60;98.60;;;;;;4990200;28;20108;-75
2023/07/30 08:59:47;;;;;;;2.97;1.98;;;24.70;98.20;;;;;;4989763;28;20084;-72
2023/07/30 09:02:48;;;;;;;5.60;2.42;;;24.70;98.10;;;;;;4990396;28;20057;-73
2023/07/30 09:05:34;;;;;;;2.75;2.00;;;24.70;97.70;;;;;;4988371;28;20057;-75
2023/07/30 09:08:22;;;;;;;3.42;1.90;;;24.70;97.20;;;;;;4984697;28;20054;-72
2023/07/30 09:11:09;;;;;;;3.13;1.88;;;24.70;96.60;;;;;;4991257;28;20053;-72
2023/07/30 09:13:57;;;;;;;10.10;2.20;;;24.60;96.40;;;;;;4975427;28;20050;-78
2023/07/30 09:16:43;;;;;;;3.45;1.80;;;24.70;96.60;;;;;;4984624;28;20570;-72
2023/07/30 09:19:34;;;;;;;2.88;1.42;;;24.70;96.20;;;;;;4993097;28;20034;-71
2023/07/30 09:22:28;;;;;;;2.63;1.67;;;24.80;96.20;;;;;;4985780;28;20526;-75
2023/07/30 09:25:16;;;;;;;5.25;2.13;;;24.80;96.30;;;;;;4979273;28;20042;-74
2023/07/30 09:28:02;;;;;;;3.00;1.85;;;24.90;96.10;;;;;;4980468;28;20042;-75
2023/07/30 09:30:49;;;;;;;7.70;2.03;;;25.00;95.60;;;;;;4990938;28;20046;-75
2023/07/30 09:33:40;;;;;;;5.32;1.90;;;25.00;95.30;;;;;;4992375;28;20042;-73
2023/07/30 09:36:25;;;;;;;4.05;1.92;;;25.00;95.20;;;;;;4989907;28;20042;-73
2023/07/30 09:39:25;;;;;;;3.03;2.30;;;25.00;94.60;;;;;;4991958;28;20070;-73
2023/07/30 09:42:11;;;;;;;4.38;2.38;;;25.10;94.00;;;;;;4991310;28;20053;-72
2023/07/30 09:45:00;;;;;;;2.88;1.70;;;25.00;93.60;;;;;;4992352;28;20543;-73
2023/07/30 09:47:50;;;;;;;2.90;1.80;;;25.00;93.30;;;;;;4990994;28;20053;-74
2023/07/30 09:50:37;;;;;;;2.67;1.70;;;24.90;93.10;;;;;;4990427;28;20049;-74
2023/07/30 09:53:25;;;;;;;11.05;2.20;;;24.80;93.30;;;;;;4987924;28;20070;-73
2023/07/30 09:56:11;;;;;;;5.05;1.98;;;24.70;93.30;;;;;;4988053;28;20526;-73
2023/07/30 09:58:57;;;;;;;3.78;1.67;;;24.70;93.30;;;;;;4990848;28;20048;-74
2023/07/30 10:01:55;;;;;;;2.40;1.60;;;24.80;93.60;;;;;;4989861;28;20046;-72
2023/07/30 10:04:43;;;;;;;3.60;2.00;;;24.80;93.60;;;;;;4991801;28;20472;-73
2023/07/30 10:07:30;;;;;;;4.38;2.00;;;24.90;93.60;;;;;;4988767;28;20046;-74
2023/07/30 10:10:19;;;;;;;4.53;1.95;;;25.00;93.20;;;;;;4976358;28;20056;-73
2023/07/30 10:13:09;;;;;;;3.95;1.80;;;25.10;93.10;;;;;;4987224;28;20126;-74
2023/07/30 10:15:58;;;;;;;4.07;1.98;;;25.20;92.90;;;;;;4985167;28;20061;-74
2023/07/30 10:18:44;;;;;;;6.25;2.88;;;25.30;92.90;;;;;;4978758;28;20038;-73
2023/07/30 10:21:32;;;;;;;4.25;2.95;;;25.30;92.50;;;;;;4977699;28;20552;-73
2023/07/30 10:24:18;;;;;;;5.93;2.72;;;25.30;92.20;;;;;;4985989;28;20070;-73
2023/07/30 10:27:09;;;;;;;4.00;2.20;;;25.30;92.20;;;;;;4979619;28;20041;-73
2023/07/30 10:30:19;;;;;;;5.60;2.63;;;25.30;92.00;;;;;;4985122;28;20531;-75
2023/07/30 10:33:10;;;;;;;3.33;1.67;;;25.30;91.80;;;;;;4986596;28;20057;-75
2023/07/30 10:35:56;;;;;;;6.00;2.03;;;25.30;91.50;;;;;;4980801;28;20049;-73
2023/07/30 10:38:43;;;;;;;3.08;2.08;;;25.30;91.00;;;;;;4988396;28;20031;-73
2023/07/30 10:41:30;;;;;;;2.45;1.77;;;25.30;90.70;;;;;;4987038;28;20046;-74
2023/07/30 10:44:27;;;;;;;6.00;2.40;;;25.40;90.70;;;;;;4977187;28;20061;-74
2023/07/30 10:47:13;;;;;;;2.35;1.77;;;25.40;90.60;;;;;;4986707;28;20050;-74
2023/07/30 10:50:02;;;;;;;6.35;2.13;;;25.40;90.50;;;;;;4990202;28;20038;-75
2023/07/30 10:52:48;;;;;;;3.70;1.80;;;25.40;90.30;;;;;;4974282;28;20419;-75
2023/07/30 10:55:35;;;;;;;4.13;2.65;;;25.40;90.20;;;;;;4988212;28;20084;-74
2023/07/30 10:58:22;;;;;;;3.97;2.47;;;25.30;90.20;;;;;;4987819;28;20058;-74
2023/07/30 11:01:08;;;;;;;3.60;1.90;;;25.40;90.10;;;;;;4985447;28;20054;-74
2023/07/30 11:03:54;;;;;;;4.18;2.10;;;25.40;89.80;;;;;;4991130;28;20388;-73
2023/07/30 11:06:47;;;;;;;2.55;1.67;;;25.50;89.50;;;;;;4967274;28;20540;-75
2023/07/30 11:09:33;;;;;;;2.47;1.55;;;25.50;89.40;;;;;;4990440;28;20065;-75
2023/07/30 11:12:22;;;;;;;4.25;2.17;;;25.50;89.10;;;;;;4984734;28;20057;-73
2023/07/30 11:15:09;;;;;;;3.70;1.75;;;25.50;88.60;;;;;;4972240;28;20625;-74
2023/07/30 11:17:55;;;;;;;4.43;2.60;;;25.50;88.30;;;;;;4982051;28;20034;-74
2023/07/30 11:20:41;;;;;;;4.13;2.72;;;25.60;88.30;;;;;;4981989;28;20077;-73
2023/07/30 11:23:27;;;;;;;4.00;1.88;;;25.60;88.30;;;;;;4987148;28;20081;-73
2023/07/30 11:26:17;;;;;;;4.53;2.17;;;25.70;87.80;;;;;;4985739;28;20078;-74
2023/07/30 11:29:16;;;;;;;3.85;2.08;;;25.70;86.30;;;;;;4958859;28;20403;-74
2023/07/30 11:32:02;;;;;;;3.20;1.77;;;25.80;85.60;;;;;;4979003;28;20093;-73
2023/07/30 11:34:49;;;;;;;6.25;2.10;;;25.80;84.30;;;;;;4977561;28;20066;-73
2023/07/30 11:37:38;;;;;;;2.00;1.50;;;25.80;83.40;;;;;;4966076;28;20047;-74
2023/07/30 11:40:24;;;;;;;3.90;2.15;;;25.80;82.40;;;;;;4982471;28;20042;-73
2023/07/30 11:43:10;;;;;;;4.22;2.05;;;25.80;81.90;;;;;;4987430;28;20031;-74
2023/07/30 11:46:24;;;;;;;3.10;1.63;;;25.80;81.80;;;;;;4983011;28;20053;-72
2023/07/30 11:49:17;;;;;;;3.72;1.55;;;25.80;82.00;;;;;;4988267;28;20050;-71
2023/07/30 11:52:10;;;;;;;3.20;1.85;;;25.80;80.40;;;;;;4982098;28;20121;-71
2023/07/30 11:55:05;;;;;;;3.30;1.90;;;25.80;81.40;;;;;;4976684;28;20551;-72
2023/07/30 11:57:51;;;;;;;3.80;1.70;;;25.80;80.90;;;;;;4988523;28;20042;-72
2023/07/30 12:00:43;;;;;;;6.90;2.40;;;25.80;80.50;;;;;;4989003;28;20121;-71
2023/07/30 12:03:29;;;;;;;3.25;1.70;;;25.90;80.70;;;;;;4978277;28;20069;-72
2023/07/30 12:06:15;;;;;;;3.17;2.00;;;25.90;80.70;;;;;;4986427;28;20034;-71
2023/07/30 12:09:01;;;;;;;3.13;1.92;;;25.90;80.30;;;;;;4988816;28;20053;-72
2023/07/30 12:11:54;;;;;;;3.00;1.70;;;25.90;79.90;;;;;;4984161;28;20046;-73
2023/07/30 12:14:52;;;;;;;4.10;1.90;;;26.00;80.10;;;;;;4989551;28;20133;-70
2023/07/30 12:17:39;;;;;;;5.18;1.70;;;26.00;80.00;;;;;;4984720;28;20046;-72
2023/07/30 12:20:28;;;;;;;4.82;2.30;;;26.00;79.40;;;;;;4985421;28;20117;-71
2023/07/30 12:23:14;;;;;;;3.45;1.70;;;26.00;78.90;;;;;;4982038;28;20050;-72
2023/07/30 12:26:00;;;;;;;7.10;2.10;;;26.10;79.10;;;;;;4987241;28;20117;-72
2023/07/30 12:28:46;;;;;;;3.90;1.80;;;26.20;79.40;;;;;;4974345;28;20081;-71
2023/07/30 12:31:32;;;;;;;2.70;1.50;;;26.20;79.60;;;;;;4987656;28;20427;-71
2023/07/30 12:34:19;;;;;;;3.45;1.77;;;26.40;79.10;;;;;;4984543;28;20580;-73
2023/07/30 12:37:05;;;;;;;3.88;1.88;;;26.40;78.60;;;;;;4982834;28;20042;-73
2023/07/30 12:39:51;;;;;;;5.15;2.35;;;26.40;78.30;;;;;;4986028;28;20107;-72
2023/07/30 12:42:37;;;;;;;5.43;2.30;;;26.40;77.90;;;;;;4973782;28;20133;-72
2023/07/30 12:45:23;;;;;;;3.95;1.92;;;26.50;77.80;;;;;;4964911;28;20042;-72
2023/07/30 12:48:09;;;;;;;5.45;2.10;;;26.60;78.10;;;;;;4988233;28;20045;-72
2023/07/30 12:50:55;;;;;;;3.60;2.17;;;26.60;78.00;;;;;;4971224;28;20050;-71
2023/07/30 12:53:41;;;;;;;3.35;2.03;;;26.70;77.70;;;;;;4970232;28;20105;-72
2023/07/30 12:56:27;;;;;;;3.45;1.92;;;26.80;77.60;;;;;;4977280;28;20050;-72
2023/07/30 12:59:13;;;;;;;3.80;2.13;;;26.80;77.60;;;;;;4988203;28;20507;-72
2023/07/30 13:01:59;;;;;;;3.28;2.00;;;26.90;77.80;;;;;;4980547;28;20058;-72
2023/07/30 13:04:45;;;;;;;7.97;2.05;;;26.90;77.00;;;;;;4976126;28;20100;-73
2023/07/30 13:07:31;;;;;;;3.60;1.92;;;27.00;76.70;;;;;;4984542;28;20050;-72
2023/07/30 13:10:17;;;;;;;3.60;1.98;;;27.00;76.20;;;;;;4988159;28;20054;-74
2023/07/30 13:13:03;;;;;;;2.67;1.90;;;27.00;75.90;;;;;;4986264;28;20046;-74
2023/07/30 13:15:48;;;;;;;8.45;2.78;;;27.00;75.70;;;;;;4974034;28;20093;-75
2023/07/30 13:18:34;;;;;;;4.40;2.47;;;27.00;75.60;;;;;;4987403;28;20077;-78
2023/07/30 13:21:21;;;;;;;4.55;2.38;;;27.00;75.40;;;;;;4985131;28;20043;-72
2023/07/30 13:24:07;;;;;;;5.57;2.80;;;27.00;75.50;;;;;;4983311;28;20039;-71
2023/07/30 13:26:53;;;;;;;3.20;2.00;;;27.00;74.50;;;;;;4976363;28;20034;-71
2023/07/30 13:29:39;;;;;;;4.88;1.98;;;27.10;73.70;;;;;;4981204;28;20046;-68
2023/07/30 13:32:25;;;;;;;2.40;1.70;;;27.10;74.20;;;;;;4985284;28;20100;-68
2023/07/30 13:35:11;;;;;;;3.47;1.65;;;27.20;73.60;;;;;;4979281;28;20050;-68
2023/07/30 13:37:57;;;;;;;2.25;1.55;;;27.20;72.70;;;;;;4977885;28;20101;-68
2023/07/30 13:40:43;;;;;;;3.85;1.70;;;27.20;72.50;;;;;;4980134;28;20050;-68
2023/07/30 13:43:29;;;;;;;3.10;2.00;;;27.20;72.10;;;;;;4991445;28;20106;-67
2023/07/30 13:46:15;;;;;;;7.05;2.92;;;27.20;72.50;;;;;;4990245;28;20054;-67
2023/07/30 13:49:01;;;;;;;5.53;2.42;;;27.10;72.30;;;;;;4988758;28;20041;-67
2023/07/30 13:51:47;;;;;;;5.78;2.58;;;27.00;71.10;;;;;;4988753;28;20078;-68
2023/07/30 13:54:33;;;;;;;5.63;2.47;;;27.00;70.80;;;;;;4987446;28;20058;-68
2023/07/30 13:57:24;;;;;;;4.25;2.40;;;26.90;70.20;;;;;;4988233;28;20053;-68
2023/07/30 14:00:10;;;;;;;3.17;1.85;;;26.80;69.20;;;;;;4990232;28;20112;-67
2023/07/30 14:02:56;;;;;;;7.75;1.88;;;26.70;69.30;;;;;;4979649;28;20042;-67
2023/07/30 14:05:42;;;;;;;4.68;2.05;;;26.60;68.80;;;;;;4988162;28;20126;-67
2023/07/30 14:08:28;;;;;;;3.35;1.73;;;26.50;68.80;;;;;;4967971;28;20038;-67
2023/07/30 14:11:14;;;;;;;3.63;1.95;;;26.50;69.50;;;;;;4991019;28;20046;-66
2023/07/30 14:14:01;;;;;;;2.75;1.60;;;26.40;69.30;;;;;;4962680;28;20043;-67
2023/07/30 14:16:47;;;;;;;1.38;1.20;;;26.30;69.00;;;;;;4984902;28;20085;-67
2023/07/30 14:19:33;;;;;;;2.50;1.58;;;26.20;68.60;;;;;;4991020;28;20046;-68
2023/07/30 14:22:19;;;;;;;2.72;1.40;;;26.10;68.90;;;;;;4988190;28;20054;-67
2023/07/30 14:25:05;;;;;;;2.53;1.48;;;26.00;69.10;;;;;;4989638;28;20046;-67
2023/07/30 14:27:51;;;;;;;3.28;2.10;;;26.00;69.70;;;;;;4990184;28;20050;-66